Time;durP1;ratioP1;P1;durP2;ratioP2;P2;SDS_P1;SDS_P2;PMS_P1;PMS_P2;Temp;Humidity;BMP_temperature;BMP_pressure;BME280_temperature;BME280_humidity;BME280_pressure;Samples;Min_cycle;Max_cycle;Signal;HPM_P1;HPM_P2
2023/03/06 00:02:12;;;;;;;1.10;1.10;;;;;;;;;;5016323;28;20203;-82
2023/03/06 00:04:40;;;;;;;1.60;1.20;;;;;;;;;;5016134;28;20292;-82
2023/03/06 00:07:08;;;;;;;1.60;1.10;;;;;;;;;;5016393;28;20207;-82
2023/03/06 00:09:37;;;;;;;0.90;0.90;;;;;;;;;;5016125;28;20226;-82
2023/03/06 00:12:05;;;;;;;1.33;1.33;;;;;;;;;;5016764;28;20271;-82
2023/03/06 00:14:34;;;;;;;7.33;1.53;;;;;;;;;;5016793;28;20195;-81
2023/03/06 00:17:02;;;;;;;3.90;1.23;;;;;;;;;;5016410;28;20251;-81
2023/03/06 00:19:32;;;;;;;1.60;1.50;;;;;;;;;;5017248;28;20254;-81
2023/03/06 00:22:02;;;;;;;1.00;1.00;;;;;;;;;;5016278;28;20271;-81
2023/03/06 00:24:30;;;;;;;0.90;0.90;;;;;;;;;;5016635;28;20204;-82
2023/03/06 00:26:58;;;;;;;1.10;1.10;;;;;;;;;;5015926;28;20293;-81
2023/03/06 00:29:27;;;;;;;8.93;1.63;;;;;;;;;;5016468;28;20318;-81
2023/03/06 00:31:55;;;;;;;0.90;0.90;;;;;;;;;;5015996;28;20361;-82
2023/03/06 00:34:24;;;;;;;1.30;1.20;;;;;;;;;;5015808;28;20219;-82
2023/03/06 00:36:54;;;;;;;1.63;1.63;;;;;;;;;;5015439;28;20458;-82
2023/03/06 00:39:23;;;;;;;0.90;0.90;;;;;;;;;;5015582;28;20200;-82
2023/03/06 00:41:51;;;;;;;1.50;1.47;;;;;;;;;;5015913;28;20211;-82
2023/03/06 00:44:22;;;;;;;0.90;0.90;;;;;;;;;;5015824;28;20239;-82
2023/03/06 00:46:50;;;;;;;0.90;0.90;;;;;;;;;;5015626;28;20207;-82
2023/03/06 00:49:19;;;;;;;1.67;1.57;;;;;;;;;;5016046;28;20203;-82
2023/03/06 00:51:47;;;;;;;1.00;1.00;;;;;;;;;;5015773;28;20196;-82
2023/03/06 00:54:17;;;;;;;1.63;1.53;;;;;;;;;;5015272;28;20218;-82
2023/03/06 00:56:45;;;;;;;1.17;1.17;;;;;;;;;;5014993;28;20224;-82
2023/03/06 00:59:14;;;;;;;2.90;1.63;;;;;;;;;;5015476;28;20231;-82
2023/03/06 01:01:42;;;;;;;1.70;1.40;;;;;;;;;;5015709;28;20228;-82
2023/03/06 01:04:10;;;;;;;2.17;1.40;;;;;;;;;;5015413;28;20196;-82
2023/03/06 01:06:39;;;;;;;1.17;1.00;;;;;;;;;;5016024;28;20269;-82
2023/03/06 01:09:07;;;;;;;2.10;1.43;;;;;;;;;;5015507;28;20207;-82
2023/03/06 01:11:37;;;;;;;3.60;1.30;;;;;;;;;;5014768;28;20227;-81
2023/03/06 01:14:05;;;;;;;1.37;1.27;;;;;;;;;;5015148;28;20262;-81
2023/03/06 01:16:34;;;;;;;1.40;1.30;;;;;;;;;;5015344;28;20207;-81
2023/03/06 01:19:02;;;;;;;2.10;1.30;;;;;;;;;;5015625;28;20214;-81
2023/03/06 01:21:31;;;;;;;1.30;1.07;;;;;;;;;;5014731;28;20214;-81
2023/03/06 01:23:59;;;;;;;1.20;1.10;;;;;;;;;;5014945;28;20208;-81
2023/03/06 01:26:27;;;;;;;1.20;1.20;;;;;;;;;;5014745;28;20196;-81
2023/03/06 01:28:57;;;;;;;3.53;1.30;;;;;;;;;;5015102;28;20200;-81
2023/03/06 01:31:26;;;;;;;4.10;1.80;;;;;;;;;;5014672;28;20273;-81
2023/03/06 01:33:55;;;;;;;1.70;1.60;;;;;;;;;;5014807;28;20199;-81
2023/03/06 01:36:23;;;;;;;1.30;1.07;;;;;;;;;;5014821;28;20207;-81
2023/03/06 01:38:51;;;;;;;1.27;1.23;;;;;;;;;;5014641;28;20203;-81
2023/03/06 01:41:20;;;;;;;0.90;0.90;;;;;;;;;;5014834;28;20220;-81
2023/03/06 01:43:48;;;;;;;1.40;1.20;;;;;;;;;;5014406;28;20213;-81
2023/03/06 01:46:41;;;;;;;1.10;1.10;;;;;;;;;;5014698;28;20238;-81
2023/03/06 01:49:14;;;;;;;1.23;1.23;;;;;;;;;;5014459;28;20227;-81
2023/03/06 01:51:47;;;;;;;2.77;1.13;;;;;;;;;;5014582;28;20254;-81
2023/03/06 01:54:16;;;;;;;1.53;1.43;;;;;;;;;;5014486;28;20298;-81
2023/03/06 01:56:47;;;;;;;2.23;1.70;;;;;;;;;;5014728;28;20199;-81
2023/03/06 01:59:15;;;;;;;4.53;1.93;;;;;;;;;;5014543;28;20236;-81
2023/03/06 02:01:44;;;;;;;1.67;1.57;;;;;;;;;;5015268;28;20207;-82
2023/03/06 02:04:14;;;;;;;1.87;1.20;;;;;;;;;;5014486;28;20302;-81
2023/03/06 02:06:43;;;;;;;1.10;1.10;;;;;;;;;;5014935;28;20203;-81
2023/03/06 02:09:12;;;;;;;2.07;1.70;;;;;;;;;;5014596;28;20258;-82
2023/03/06 02:11:42;;;;;;;1.30;1.20;;;;;;;;;;5014043;28;20219;-81
2023/03/06 02:14:12;;;;;;;1.47;1.37;;;;;;;;;;5014139;28;20255;-82
2023/03/06 02:16:42;;;;;;;2.27;1.70;;;;;;;;;;5014693;28;20412;-81
2023/03/06 02:19:15;;;;;;;1.60;1.50;;;;;;;;;;5014368;28;20240;-81
2023/03/06 02:21:45;;;;;;;2.60;1.40;;;;;;;;;;5014005;28;20254;-81
2023/03/06 02:24:19;;;;;;;1.90;1.33;;;;;;;;;;5014279;28;20225;-82
2023/03/06 02:26:50;;;;;;;3.80;1.37;;;;;;;;;;5014362;28;20245;-82
2023/03/06 02:29:20;;;;;;;3.03;1.87;;;;;;;;;;5014433;28;20231;-82
2023/03/06 02:31:49;;;;;;;2.97;1.90;;;;;;;;;;5013821;28;20306;-82
2023/03/06 02:34:36;;;;;;;2.10;1.73;;;;;;;;;;5013769;28;20253;-82
2023/03/06 02:37:07;;;;;;;1.20;1.20;;;;;;;;;;5014203;28;20210;-82
2023/03/06 02:39:38;;;;;;;1.13;1.13;;;;;;;;;;5013518;28;20196;-81
2023/03/06 02:42:08;;;;;;;1.53;1.47;;;;;;;;;;5013911;28;20202;-82
2023/03/06 02:44:37;;;;;;;1.60;1.33;;;;;;;;;;5013635;28;20282;-82
2023/03/06 02:47:06;;;;;;;1.30;1.30;;;;;;;;;;5013663;28;20257;-82
2023/03/06 02:49:35;;;;;;;4.67;1.97;;;;;;;;;;5014154;28;20234;-82
2023/03/06 02:52:03;;;;;;;2.40;1.50;;;;;;;;;;5013628;28;20235;-82
2023/03/06 02:54:31;;;;;;;1.07;1.07;;;;;;;;;;5012955;28;20262;-83
2023/03/06 02:57:00;;;;;;;2.00;1.43;;;;;;;;;;5013904;28;20210;-82
2023/03/06 02:59:29;;;;;;;10.17;2.00;;;;;;;;;;5013722;28;20219;-82
2023/03/06 03:01:58;;;;;;;1.63;1.53;;;;;;;;;;5013425;28;20191;-82
2023/03/06 03:04:26;;;;;;;1.03;1.03;;;;;;;;;;5013848;28;20301;-82
2023/03/06 03:06:54;;;;;;;1.20;1.10;;;;;;;;;;5013462;28;20214;-82
2023/03/06 03:09:23;;;;;;;1.10;1.10;;;;;;;;;;5012775;28;20298;-82
2023/03/06 03:11:51;;;;;;;0.93;0.93;;;;;;;;;;5013696;28;20294;-82
2023/03/06 03:14:20;;;;;;;3.03;1.10;;;;;;;;;;5013765;28;20235;-82
2023/03/06 03:16:49;;;;;;;1.77;1.67;;;;;;;;;;5013556;28;20196;-82
2023/03/06 03:19:18;;;;;;;1.00;1.00;;;;;;;;;;5013843;28;20209;-82
2023/03/06 03:21:46;;;;;;;0.90;0.90;;;;;;;;;;5012791;28;20235;-82
2023/03/06 03:24:15;;;;;;;3.03;1.00;;;;;;;;;;5012572;28;20200;-81
2023/03/06 03:26:43;;;;;;;0.97;0.97;;;;;;;;;;5012509;28;20203;-82
2023/03/06 03:29:12;;;;;;;2.87;1.37;;;;;;;;;;5012678;28;20203;-82
2023/03/06 03:31:40;;;;;;;5.10;1.47;;;;;;;;;;5012507;28;20235;-82
2023/03/06 03:34:10;;;;;;;1.13;1.13;;;;;;;;;;5014496;28;20344;-81
2023/03/06 03:36:39;;;;;;;1.33;1.33;;;;;;;;;;5017210;28;20218;-82
2023/03/06 03:39:07;;;;;;;1.00;1.00;;;;;;;;;;5016504;28;20235;-82
2023/03/06 03:41:36;;;;;;;0.90;0.90;;;;;;;;;;5016738;28;20235;-82
2023/03/06 03:44:04;;;;;;;0.90;0.90;;;;;;;;;;5016381;28;20200;-82
2023/03/06 03:46:33;;;;;;;1.47;1.37;;;;;;;;;;5016890;28;20231;-82
2023/03/06 03:49:01;;;;;;;4.47;1.67;;;;;;;;;;5016294;28;20207;-82
2023/03/06 03:51:31;;;;;;;0.80;0.80;;;;;;;;;;5016753;28;20318;-82
2023/03/06 03:53:59;;;;;;;1.17;1.17;;;;;;;;;;5016223;28;20219;-82
2023/03/06 03:56:28;;;;;;;1.10;1.10;;;;;;;;;;5016644;28;20203;-81
2023/03/06 03:58:58;;;;;;;2.53;1.37;;;;;;;;;;5015653;28;20263;-82
2023/03/06 04:01:27;;;;;;;1.27;1.20;;;;;;;;;;5015859;28;20200;-82
2023/03/06 04:03:56;;;;;;;1.10;1.03;;;;;;;;;;5016177;28;20298;-82
2023/03/06 04:06:24;;;;;;;1.20;1.20;;;;;;;;;;5015805;28;20227;-81
2023/03/06 04:08:54;;;;;;;1.27;1.27;;;;;;;;;;5015492;28;20247;-82
2023/03/06 04:11:22;;;;;;;0.90;0.90;;;;;;;;;;5015749;28;20229;-82
2023/03/06 04:13:51;;;;;;;1.00;1.00;;;;;;;;;;5016415;28;20206;-82
2023/03/06 04:16:19;;;;;;;1.00;1.00;;;;;;;;;;5016509;28;20236;-82
2023/03/06 04:18:51;;;;;;;1.60;1.23;;;;;;;;;;5016660;28;20210;-82
2023/03/06 04:21:19;;;;;;;1.20;1.20;;;;;;;;;;5016319;28;20291;-82
2023/03/06 04:23:48;;;;;;;1.10;1.10;;;;;;;;;;5016795;28;20298;-83
2023/03/06 04:26:17;;;;;;;1.33;1.33;;;;;;;;;;5016401;28;20227;-83
2023/03/06 04:28:46;;;;;;;0.90;0.90;;;;;;;;;;5016719;28;20222;-83
2023/03/06 04:31:14;;;;;;;1.03;1.03;;;;;;;;;;5016410;28;20275;-83
2023/03/06 04:33:42;;;;;;;1.00;1.00;;;;;;;;;;5016219;28;20299;-83
2023/03/06 04:36:14;;;;;;;1.00;1.00;;;;;;;;;;5015828;28;20224;-83
2023/03/06 04:38:43;;;;;;;1.90;1.57;;;;;;;;;;5015997;28;20231;-83
2023/03/06 04:41:11;;;;;;;0.90;0.90;;;;;;;;;;5016260;28;20223;-83
2023/03/06 04:43:41;;;;;;;0.90;0.90;;;;;;;;;;5016110;28;20203;-83
2023/03/06 04:46:13;;;;;;;1.20;1.20;;;;;;;;;;5015669;28;20203;-83
2023/03/06 04:48:41;;;;;;;1.00;1.00;;;;;;;;;;5015817;28;20211;-84
2023/03/06 04:51:11;;;;;;;1.10;1.10;;;;;;;;;;5015803;28;20218;-84
2023/03/06 04:53:39;;;;;;;2.03;1.37;;;;;;;;;;5015739;28;20236;-83
2023/03/06 04:56:08;;;;;;;1.13;1.13;;;;;;;;;;5015652;28;20214;-83
2023/03/06 04:58:36;;;;;;;0.90;0.90;;;;;;;;;;5015604;28;20230;-84
2023/03/06 05:01:06;;;;;;;0.80;0.80;;;;;;;;;;5015618;28;20207;-84
2023/03/06 05:03:35;;;;;;;0.90;0.90;;;;;;;;;;5015713;28;20200;-84
2023/03/06 05:06:03;;;;;;;1.03;1.03;;;;;;;;;;5015602;28;20207;-86
2023/03/06 05:08:32;;;;;;;1.07;1.07;;;;;;;;;;5015869;28;20199;-85
2023/03/06 05:11:02;;;;;;;0.90;0.90;;;;;;;;;;5014936;28;20202;-84
2023/03/06 05:13:31;;;;;;;2.07;1.97;;;;;;;;;;5014629;28;20278;-85
2023/03/06 05:16:02;;;;;;;1.33;1.23;;;;;;;;;;5015380;28;20204;-85
2023/03/06 05:18:32;;;;;;;1.07;1.07;;;;;;;;;;5015236;28;20204;-85
2023/03/06 05:21:00;;;;;;;0.80;0.80;;;;;;;;;;5015299;28;20289;-85
2023/03/06 05:23:29;;;;;;;1.23;1.23;;;;;;;;;;5014959;28;20199;-85
2023/03/06 05:25:58;;;;;;;1.47;1.47;;;;;;;;;;5015042;28;20295;-85
2023/03/06 05:28:27;;;;;;;1.00;1.00;;;;;;;;;;5015055;28;20203;-86
2023/03/06 05:30:55;;;;;;;1.10;1.10;;;;;;;;;;5015028;28;20207;-86
2023/03/06 05:33:25;;;;;;;1.33;1.03;;;;;;;;;;5015089;28;20234;-85
2023/03/06 05:35:55;;;;;;;1.20;1.13;;;;;;;;;;5015208;28;20225;-85
2023/03/06 05:38:23;;;;;;;1.10;1.10;;;;;;;;;;5015479;28;20207;-86
2023/03/06 05:40:52;;;;;;;0.90;0.90;;;;;;;;;;5014443;28;20218;-85
2023/03/06 05:43:21;;;;;;;0.90;0.90;;;;;;;;;;5015782;28;20200;-86
2023/03/06 05:45:51;;;;;;;0.90;0.90;;;;;;;;;;5014894;28;20359;-87
2023/03/06 05:48:20;;;;;;;0.90;0.90;;;;;;;;;;5015454;28;20297;-87
2023/03/06 05:50:56;;;;;;;0.97;0.97;;;;;;;;;;5015250;28;20273;-86
2023/03/06 05:53:25;;;;;;;0.80;0.80;;;;;;;;;;5015415;28;20313;-86
2023/03/06 05:55:57;;;;;;;0.90;0.90;;;;;;;;;;5013824;28;20215;-85
2023/03/06 05:58:26;;;;;;;0.90;0.90;;;;;;;;;;5013888;28;20291;-85
2023/03/06 06:00:54;;;;;;;0.80;0.80;;;;;;;;;;5014487;28;20262;-85
2023/03/06 06:03:23;;;;;;;2.00;1.90;;;;;;;;;;5014731;28;20195;-86
2023/03/06 06:05:52;;;;;;;0.97;0.97;;;;;;;;;;5014240;28;20208;-85
2023/03/06 06:08:22;;;;;;;1.70;1.60;;;;;;;;;;5014492;28;20274;-86
2023/03/06 06:10:50;;;;;;;0.90;0.90;;;;;;;;;;5014461;28;20207;-85
2023/03/06 06:13:20;;;;;;;1.20;1.20;;;;;;;;;;5014728;28;20301;-85
2023/03/06 06:15:49;;;;;;;0.90;0.90;;;;;;;;;;5014488;28;20218;-86
2023/03/06 06:18:17;;;;;;;0.90;0.90;;;;;;;;;;5014355;28;20208;-85
2023/03/06 06:20:46;;;;;;;1.20;1.20;;;;;;;;;;5014096;28;20277;-85
2023/03/06 06:23:14;;;;;;;1.20;1.20;;;;;;;;;;5013502;28;20294;-85
2023/03/06 06:25:44;;;;;;;1.20;1.20;;;;;;;;;;5014350;28;20207;-86
2023/03/06 06:28:12;;;;;;;0.80;0.80;;;;;;;;;;5014114;28;20212;-85
2023/03/06 06:30:41;;;;;;;1.10;1.10;;;;;;;;;;5014793;28;20252;-85
2023/03/06 06:33:09;;;;;;;2.00;1.77;;;;;;;;;;5014712;28;20261;-86
2023/03/06 06:35:38;;;;;;;0.90;0.90;;;;;;;;;;5014229;28;20219;-85
2023/03/06 06:38:06;;;;;;;0.90;0.90;;;;;;;;;;5014606;28;20224;-85
2023/03/06 06:40:35;;;;;;;0.80;0.80;;;;;;;;;;5014352;28;20258;-85
2023/03/06 06:43:05;;;;;;;2.00;1.90;;;;;;;;;;5014187;28;20250;-86
2023/03/06 06:45:33;;;;;;;0.80;0.80;;;;;;;;;;5014067;28;20224;-86
2023/03/06 06:48:03;;;;;;;1.00;1.00;;;;;;;;;;5014043;28;20199;-86
2023/03/06 06:50:31;;;;;;;0.90;0.90;;;;;;;;;;5014064;28;20223;-85
2023/03/06 06:52:59;;;;;;;0.90;0.90;;;;;;;;;;5014203;28;20284;-85
2023/03/06 06:55:28;;;;;;;1.00;1.00;;;;;;;;;;5013965;28;20207;-85
2023/03/06 06:57:56;;;;;;;1.30;1.30;;;;;;;;;;5014452;28;20211;-85
2023/03/06 07:00:26;;;;;;;0.87;0.87;;;;;;;;;;5014268;28;20383;-85
2023/03/06 07:02:55;;;;;;;1.77;1.67;;;;;;;;;;5014301;28;20204;-86
2023/03/06 07:05:23;;;;;;;9.00;1.37;;;;;;;;;;5014201;28;20238;-85
2023/03/06 07:07:52;;;;;;;2.00;1.87;;;;;;;;;;5015927;28;20203;-85
2023/03/06 07:10:20;;;;;;;0.90;0.90;;;;;;;;;;5017937;28;20199;-85
2023/03/06 07:12:49;;;;;;;1.27;1.27;;;;;;;;;;5018283;28;20214;-85
2023/03/06 07:15:18;;;;;;;0.90;0.90;;;;;;;;;;5017954;28;20253;-85
2023/03/06 07:17:47;;;;;;;0.80;0.80;;;;;;;;;;5017539;28;20247;-85
2023/03/06 07:20:17;;;;;;;1.00;1.00;;;;;;;;;;5017343;28;20516;-85
2023/03/06 07:22:46;;;;;;;0.80;0.80;;;;;;;;;;5017484;28;20223;-86
2023/03/06 07:25:19;;;;;;;1.03;1.03;;;;;;;;;;5018110;28;20210;-85
2023/03/06 07:27:48;;;;;;;1.13;1.13;;;;;;;;;;5017866;28;20205;-85
2023/03/06 07:30:21;;;;;;;1.57;1.57;;;;;;;;;;5017672;28;20238;-85
2023/03/06 07:32:53;;;;;;;0.80;0.80;;;;;;;;;;5017262;28;20203;-85
2023/03/06 07:35:22;;;;;;;0.80;0.80;;;;;;;;;;5018372;28;20204;-85
2023/03/06 07:37:51;;;;;;;0.80;0.80;;;;;;;;;;5018349;28;20214;-85
2023/03/06 07:40:21;;;;;;;0.80;0.80;;;;;;;;;;5018287;28;20309;-85
2023/03/06 07:42:49;;;;;;;0.73;0.73;;;;;;;;;;5018103;28;20407;-85
2023/03/06 07:45:18;;;;;;;0.80;0.80;;;;;;;;;;5017495;28;20203;-85
2023/03/06 07:47:46;;;;;;;0.80;0.80;;;;;;;;;;5018161;28;20207;-85
2023/03/06 07:50:16;;;;;;;1.00;1.00;;;;;;;;;;5017189;28;20211;-85
2023/03/06 07:52:45;;;;;;;0.80;0.80;;;;;;;;;;5018271;28;20239;-85
2023/03/06 07:55:13;;;;;;;1.00;1.00;;;;;;;;;;5017465;28;20219;-85
2023/03/06 07:57:42;;;;;;;0.77;0.77;;;;;;;;;;5017753;28;20199;-85
2023/03/06 08:00:12;;;;;;;1.00;1.00;;;;;;;;;;5017125;28;20235;-85
2023/03/06 08:02:42;;;;;;;0.80;0.80;;;;;;;;;;5017773;28;20203;-85
2023/03/06 08:05:14;;;;;;;0.80;0.80;;;;;;;;;;5017254;28;20558;-85
2023/03/06 08:07:45;;;;;;;0.80;0.80;;;;;;;;;;5017671;28;20246;-85
2023/03/06 08:10:14;;;;;;;0.80;0.80;;;;;;;;;;5017564;28;20200;-85
2023/03/06 08:12:42;;;;;;;0.80;0.80;;;;;;;;;;5017373;28;20269;-85
2023/03/06 08:15:15;;;;;;;0.70;0.70;;;;;;;;;;5016554;28;20224;-84
2023/03/06 08:17:43;;;;;;;0.80;0.80;;;;;;;;;;5017130;28;20230;-84
2023/03/06 08:20:13;;;;;;;0.60;0.60;;;;;;;;;;5017244;28;20263;-82
2023/03/06 08:22:41;;;;;;;0.90;0.90;;;;;;;;;;5017047;28;20209;-84
2023/03/06 08:25:13;;;;;;;2.07;1.23;;;;;;;;;;5016951;28;20261;-85
2023/03/06 08:27:42;;;;;;;1.77;1.67;;;;;;;;;;5016537;28;20204;-85
2023/03/06 08:30:11;;;;;;;0.90;0.90;;;;;;;;;;5015625;28;20223;-85
2023/03/06 08:32:39;;;;;;;1.27;1.27;;;;;;;;;;5016601;28;20235;-85
2023/03/06 08:35:08;;;;;;;2.10;2.10;;;;;;;;;;5016617;28;20212;-85
2023/03/06 08:37:37;;;;;;;0.97;0.97;;;;;;;;;;5016864;28;20204;-85
2023/03/06 08:40:07;;;;;;;0.80;0.80;;;;;;;;;;5017693;28;20228;-82
2023/03/06 08:42:36;;;;;;;1.10;1.10;;;;;;;;;;5017426;28;20211;-81
2023/03/06 08:45:06;;;;;;;1.33;1.30;;;;;;;;;;5017304;28;20192;-82
2023/03/06 08:47:35;;;;;;;1.47;1.37;;;;;;;;;;5017752;28;20203;-81
2023/03/06 08:50:07;;;;;;;0.90;0.90;;;;;;;;;;5017297;28;20299;-81
2023/03/06 08:52:37;;;;;;;0.80;0.80;;;;;;;;;;5017250;28;20246;-82
2023/03/06 08:55:06;;;;;;;0.80;0.80;;;;;;;;;;5017148;28;20314;-82
2023/03/06 08:57:35;;;;;;;1.00;1.00;;;;;;;;;;5016795;28;20200;-81
2023/03/06 09:00:07;;;;;;;0.90;0.90;;;;;;;;;;5016432;28;20235;-81
2023/03/06 09:02:36;;;;;;;0.80;0.80;;;;;;;;;;5017036;28;20226;-81
2023/03/06 09:05:06;;;;;;;0.80;0.80;;;;;;;;;;5017213;28;20220;-82
2023/03/06 09:07:37;;;;;;;1.03;1.03;;;;;;;;;;5016240;28;20199;-84
2023/03/06 09:10:07;;;;;;;0.80;0.80;;;;;;;;;;5005094;28;20301;-83
2023/03/06 09:12:37;;;;;;;1.17;1.17;;;;;;;;;;5014517;28;20215;-83
2023/03/06 09:15:20;;;;;;;0.70;0.70;;;;;;;;;;5012593;28;20276;-83
2023/03/06 09:17:49;;;;;;;0.73;0.73;;;;;;;;;;5010168;28;20213;-84
2023/03/06 09:20:18;;;;;;;1.83;1.73;;;;;;;;;;5010644;28;20226;-82
2023/03/06 09:22:47;;;;;;;0.70;0.70;;;;;;;;;;5010843;28;20215;-82
2023/03/06 09:25:20;;;;;;;0.70;0.70;;;;;;;;;;5012327;28;20211;-82
2023/03/06 09:27:49;;;;;;;0.70;0.70;;;;;;;;;;5007917;28;20204;-83
2023/03/06 09:30:37;;;;;;;1.07;1.07;;;;;;;;;;5011641;28;20291;-83
2023/03/06 09:33:06;;;;;;;0.70;0.70;;;;;;;;;;5009105;28;20247;-82
2023/03/06 09:35:34;;;;;;;0.70;0.70;;;;;;;;;;5014578;28;20217;-83
2023/03/06 09:38:03;;;;;;;0.80;0.80;;;;;;;;;;5011489;28;20213;-82
2023/03/06 09:40:39;;;;;;;0.70;0.70;;;;;;;;;;5001224;28;20278;-82
2023/03/06 09:43:10;;;;;;;0.70;0.70;;;;;;;;;;5006333;28;20218;-83
2023/03/06 09:45:41;;;;;;;0.73;0.73;;;;;;;;;;5004671;28;20337;-84
2023/03/06 09:48:14;;;;;;;0.70;0.70;;;;;;;;;;5003711;28;20196;-84
2023/03/06 09:50:45;;;;;;;1.47;1.17;;;;;;;;;;5000922;28;20215;-83
2023/03/06 09:53:22;;;;;;;0.87;0.87;;;;;;;;;;5005131;28;20213;-81
2023/03/06 09:56:00;;;;;;;0.90;0.90;;;;;;;;;;5003234;28;20231;-82
2023/03/06 09:58:30;;;;;;;3.07;1.40;;;;;;;;;;5001488;28;20207;-82
2023/03/06 10:01:02;;;;;;;0.80;0.80;;;;;;;;;;5006697;28;20237;-81
2023/03/06 10:03:35;;;;;;;1.13;1.13;;;;;;;;;;5000619;28;20201;-81
2023/03/06 10:06:08;;;;;;;1.40;0.90;;;;;;;;;;5002276;28;20562;-82
2023/03/06 10:08:44;;;;;;;1.63;1.37;;;;;;;;;;4999444;28;20256;-81
2023/03/06 10:11:13;;;;;;;0.87;0.87;;;;;;;;;;5005164;28;20201;-83
2023/03/06 10:13:45;;;;;;;1.53;1.30;;;;;;;;;;5003337;28;20209;-82
2023/03/06 10:16:23;;;;;;;1.63;1.40;;;;;;;;;;5004010;28;20317;-82
2023/03/06 10:18:55;;;;;;;1.50;1.40;;;;;;;;;;5004791;28;20211;-83
2023/03/06 10:21:38;;;;;;;5.23;1.80;;;;;;;;;;5007349;28;20247;-81
2023/03/06 10:24:14;;;;;;;1.63;1.53;;;;;;;;;;5004405;28;20215;-82
2023/03/06 10:26:47;;;;;;;0.70;0.70;;;;;;;;;;5006315;28;20211;-81
2023/03/06 10:29:28;;;;;;;0.80;0.80;;;;;;;;;;5003925;28;20259;-82
2023/03/06 10:32:00;;;;;;;3.03;1.83;;;;;;;;;;5004991;28;20223;-82
2023/03/06 10:34:31;;;;;;;1.67;1.53;;;;;;;;;;5005502;28;20203;-81
2023/03/06 10:37:03;;;;;;;1.53;1.43;;;;;;;;;;5007518;28;20207;-82
2023/03/06 10:39:32;;;;;;;2.60;1.63;;;;;;;;;;5004164;28;20289;-81
2023/03/06 10:42:06;;;;;;;1.30;1.20;;;;;;;;;;5004983;28;20230;-81
2023/03/06 10:44:34;;;;;;;1.27;1.13;;;;;;;;;;5008086;28;20214;-81
2023/03/06 10:47:22;;;;;;;0.97;0.97;;;;;;;;;;5007366;28;20234;-82
2023/03/06 10:49:58;;;;;;;0.70;0.70;;;;;;;;;;5005763;28;20211;-81
2023/03/06 10:52:29;;;;;;;1.40;1.30;;;;;;;;;;5006248;28;20208;-82
2023/03/06 10:55:22;;;;;;;3.60;1.30;;;;;;;;;;5005053;28;20248;-83
2023/03/06 10:57:53;;;;;;;1.17;1.17;;;;;;;;;;5005522;28;20222;-82
2023/03/06 11:00:28;;;;;;;1.57;1.47;;;;;;;;;;5009903;28;20291;-83
2023/03/06 11:03:16;;;;;;;4.87;2.23;;;;;;;;;;5009179;28;20204;-82
2023/03/06 11:06:10;;;;;;;1.87;1.77;;;;;;;;;;5004141;28;20258;-82
2023/03/06 11:08:42;;;;;;;2.23;2.07;;;;;;;;;;4986961;28;20298;-84
2023/03/06 11:11:13;;;;;;;1.03;1.03;;;;;;;;;;5007352;28;20294;-84
2023/03/06 11:13:45;;;;;;;2.37;2.00;;;;;;;;;;5005835;28;20204;-85
2023/03/06 11:16:21;;;;;;;0.80;0.80;;;;;;;;;;5006115;28;20223;-84
2023/03/06 11:18:58;;;;;;;2.80;1.63;;;;;;;;;;4996837;28;20212;-84
2023/03/06 11:21:28;;;;;;;1.20;1.20;;;;;;;;;;5006007;28;20246;-84
2023/03/06 11:24:02;;;;;;;2.20;1.70;;;;;;;;;;5006576;28;20282;-84
2023/03/06 11:26:34;;;;;;;1.90;1.47;;;;;;;;;;5002580;28;20208;-85
2023/03/06 11:29:06;;;;;;;1.03;1.03;;;;;;;;;;5003989;28;20204;-86
2023/03/06 11:31:37;;;;;;;3.17;1.93;;;;;;;;;;5008651;28;20196;-85
2023/03/06 11:34:16;;;;;;;2.23;2.03;;;;;;;;;;5002704;28;20272;-83
2023/03/06 11:36:47;;;;;;;4.73;3.40;;;;;;;;;;5001077;28;20241;-85
2023/03/06 11:39:20;;;;;;;2.07;1.93;;;;;;;;;;5005684;28;20203;-82
2023/03/06 11:41:54;;;;;;;3.63;1.83;;;;;;;;;;5004609;28;20306;-86
2023/03/06 11:44:32;;;;;;;2.00;1.80;;;;;;;;;;5005027;28;20208;-84
2023/03/06 11:47:05;;;;;;;5.07;2.07;;;;;;;;;;5003370;28;20204;-84
2023/03/06 11:49:40;;;;;;;2.30;1.70;;;;;;;;;;5004745;28;20345;-86
2023/03/06 11:52:13;;;;;;;3.30;2.00;;;;;;;;;;5007404;28;20215;-84
2023/03/06 11:54:42;;;;;;;3.70;2.20;;;;;;;;;;5010230;28;20237;-84
2023/03/06 11:57:15;;;;;;;3.57;2.50;;;;;;;;;;5007696;28;20219;-84
2023/03/06 11:59:58;;;;;;;3.33;2.40;;;;;;;;;;5003916;28;20326;-84
2023/03/06 12:02:33;;;;;;;4.10;2.20;;;;;;;;;;4997513;28;20230;-83
2023/03/06 12:05:11;;;;;;;2.00;1.90;;;;;;;;;;5009178;28;20211;-85
2023/03/06 12:07:46;;;;;;;2.03;1.93;;;;;;;;;;5000866;28;20219;-83
2023/03/06 12:10:17;;;;;;;4.10;3.37;;;;;;;;;;5009567;28;20200;-83
2023/03/06 12:12:58;;;;;;;2.37;1.70;;;;;;;;;;5007011;28;20204;-84
2023/03/06 12:15:31;;;;;;;1.83;1.53;;;;;;;;;;5007286;28;20239;-82
2023/03/06 12:18:04;;;;;;;5.17;2.80;;;;;;;;;;5007975;28;20221;-88
2023/03/06 12:20:49;;;;;;;2.27;2.07;;;;;;;;;;5010855;28;20222;-85
2023/03/06 12:23:33;;;;;;;4.43;3.33;;;;;;;;;;5008608;28;20208;-85
2023/03/06 12:26:22;;;;;;;5.00;2.63;;;;;;;;;;5004883;28;20204;-85
2023/03/06 12:29:00;;;;;;;4.27;2.90;;;;;;;;;;5008069;28;20205;-84
2023/03/06 12:31:50;;;;;;;1.00;1.00;;;;;;;;;;5006121;28;20210;-84
2023/03/06 12:34:28;;;;;;;3.60;3.30;;;;;;;;;;5008975;28;20276;-86
2023/03/06 12:37:03;;;;;;;4.87;3.77;;;;;;;;;;5010832;28;20213;-86
2023/03/06 12:39:47;;;;;;;3.73;3.40;;;;;;;;;;5008236;28;20216;-84
2023/03/06 12:42:41;;;;;;;3.20;2.90;;;;;;;;;;5009460;28;20215;-84
2023/03/06 12:45:22;;;;;;;2.67;2.47;;;;;;;;;;5010194;28;20210;-84
2023/03/06 12:47:52;;;;;;;3.53;3.10;;;;;;;;;;5006196;28;20214;-85
2023/03/06 12:50:24;;;;;;;4.20;2.93;;;;;;;;;;5008301;28;20193;-86
2023/03/06 12:52:54;;;;;;;6.27;5.67;;;;;;;;;;5007783;28;20210;-86
2023/03/06 12:55:25;;;;;;;3.97;2.50;;;;;;;;;;5005618;28;20214;-86
2023/03/06 12:58:16;;;;;;;3.03;2.73;;;;;;;;;;5007615;28;20258;-85
2023/03/06 13:01:10;;;;;;;6.53;5.33;;;;;;;;;;5008918;28;20297;-85
2023/03/06 13:03:50;;;;;;;2.60;2.40;;;;;;;;;;5006309;28;20216;-85
2023/03/06 13:06:33;;;;;;;2.37;2.17;;;;;;;;;;5010108;28;20212;-84
2023/03/06 13:09:29;;;;;;;3.30;3.00;;;;;;;;;;5006851;28;20204;-84
2023/03/06 13:12:10;;;;;;;2.80;2.40;;;;;;;;;;5015869;28;20205;-84
2023/03/06 13:14:58;;;;;;;8.57;3.70;;;;;;;;;;5013618;28;20212;-83
2023/03/06 13:17:33;;;;;;;5.20;3.00;;;;;;;;;;5009387;28;20224;-85
2023/03/06 13:20:27;;;;;;;3.50;3.20;;;;;;;;;;5009290;28;20244;-86
2023/03/06 13:22:56;;;;;;;3.57;2.93;;;;;;;;;;5008959;28;20206;-86
2023/03/06 13:25:54;;;;;;;5.17;3.50;;;;;;;;;;5007647;28;20209;-84
2023/03/06 13:28:24;;;;;;;5.10;3.07;;;;;;;;;;4932569;29;20228;-87
2023/03/06 13:30:55;;;;;;;2.57;2.30;;;;;;;;;;4943558;28;20275;-86
2023/03/06 13:33:55;;;;;;;2.80;2.43;;;;;;;;;;5005911;28;20270;-85
2023/03/06 13:36:27;;;;;;;3.17;2.70;;;;;;;;;;4965891;28;20229;-84
2023/03/06 13:39:07;;;;;;;4.77;4.03;;;;;;;;;;5010754;28;20205;-86
2023/03/06 13:41:42;;;;;;;4.40;4.00;;;;;;;;;;5011176;28;20230;-84
2023/03/06 13:44:29;;;;;;;3.30;2.63;;;;;;;;;;5008198;28;20252;-84
2023/03/06 13:46:59;;;;;;;3.30;2.57;;;;;;;;;;5010300;28;20205;-86
2023/03/06 13:49:28;;;;;;;3.13;1.70;;;;;;;;;;5006175;28;20216;-85
2023/03/06 13:52:06;;;;;;;5.30;4.30;;;;;;;;;;5004057;28;20466;-86
2023/03/06 13:54:47;;;;;;;5.20;4.53;;;;;;;;;;5003464;28;20200;-85
2023/03/06 13:57:27;;;;;;;5.10;2.97;;;;;;;;;;5002592;28;20227;-86
2023/03/06 14:00:18;;;;;;;2.97;2.70;;;;;;;;;;4997401;28;20230;-85
2023/03/06 14:03:02;;;;;;;2.90;2.60;;;;;;;;;;5001909;28;20212;-84
2023/03/06 14:05:34;;;;;;;4.63;4.00;;;;;;;;;;5007613;28;20636;-86
2023/03/06 14:08:08;;;;;;;5.10;4.63;;;;;;;;;;4997459;28;20271;-85
2023/03/06 14:10:37;;;;;;;4.43;2.67;;;;;;;;;;5006181;28;20243;-87
2023/03/06 14:13:08;;;;;;;2.60;2.40;;;;;;;;;;4998355;28;20298;-86
2023/03/06 14:15:37;;;;;;;1.67;1.57;;;;;;;;;;4998207;28;20226;-85
2023/03/06 14:18:07;;;;;;;4.23;2.70;;;;;;;;;;5000280;28;20235;-82
2023/03/06 14:20:41;;;;;;;5.50;1.60;;;;;;;;;;5005549;28;20219;-83
2023/03/06 14:23:34;;;;;;;4.50;2.63;;;;;;;;;;4982806;28;20209;-84
2023/03/06 14:26:07;;;;;;;2.70;1.73;;;;;;;;;;4958240;28;20204;-83
2023/03/06 14:28:36;;;;;;;5.03;3.83;;;;;;;;;;4973568;28;20195;-81
2023/03/06 14:31:06;;;;;;;4.87;3.30;;;;;;;;;;4993062;28;20223;-83
2023/03/06 14:33:40;;;;;;;1.60;1.47;;;;;;;;;;4982236;28;20306;-83
2023/03/06 14:36:13;;;;;;;4.47;1.80;;;;;;;;;;4987716;28;20211;-84
2023/03/06 14:38:44;;;;;;;3.13;2.27;;;;;;;;;;4993528;28;20215;-83
2023/03/06 14:41:18;;;;;;;3.17;2.23;;;;;;;;;;4995279;28;20585;-84
2023/03/06 14:43:46;;;;;;;6.13;2.50;;;;;;;;;;4991046;28;20236;-82
2023/03/06 14:46:19;;;;;;;2.53;2.33;;;;;;;;;;4983629;28;20211;-84
2023/03/06 14:48:48;;;;;;;2.93;2.63;;;;;;;;;;4996740;28;20200;-84
2023/03/06 14:51:18;;;;;;;4.07;3.70;;;;;;;;;;4996834;28;20223;-85
2023/03/06 14:53:48;;;;;;;4.50;3.00;;;;;;;;;;5008117;28;20261;-82
2023/03/06 14:56:19;;;;;;;2.13;1.93;;;;;;;;;;5011340;28;20269;-81
2023/03/06 14:58:54;;;;;;;4.67;3.67;;;;;;;;;;5008796;28;20228;-78
2023/03/06 15:01:26;;;;;;;6.53;5.50;;;;;;;;;;5011358;28;20242;-81
2023/03/06 15:03:58;;;;;;;4.50;3.97;;;;;;;;;;5012717;28;20261;-78
2023/03/06 15:06:31;;;;;;;4.33;3.83;;;;;;;;;;5013390;28;20203;-80
2023/03/06 15:09:01;;;;;;;4.73;3.33;;;;;;;;;;5012074;28;20210;-77
2023/03/06 15:11:50;;;;;;;2.87;2.57;;;;;;;;;;5011023;28;20239;-77